Flight Track Log - Related Links

Times and Time Zones

All times are in EDT time to prevent confusion due to time zone crossing. See the SWA127 flight status page for this flight to view local times or setup timezone preferences in your user account.

Time Position Orientation Groundspeed Altitude Reporting Facility
EDT Latitude Longitude Course Direction KTS km/h feet Rate Location/Type
Wed 06:37:09 40.4692 -80.3183 180° South 220 407 4,200  Level Cleveland Center
Wed 06:38:09 40.3836 -80.3133 177° South 258 478 7,000 2,800 Climbing Cleveland Center
Wed 06:39:09 40.3150 -80.3081 177° South 275 509 9,800 2,550 Climbing Cleveland Center
Wed 06:40:09 40.2378 -80.3056 179° South 316 586 12,100 2,300 Climbing Cleveland Center
Wed 06:41:09 40.1419 -80.3033 179° South 354 655 14,400 2,600 Climbing Cleveland Center
Wed 06:42:00 39.7975 -80.2500 180° South  Level FlightAware Approximate
Wed 06:42:09 40.0417 -80.2983 178° South 362 671 17,300  Level Cleveland Center
Wed 06:43:09 39.9397 -80.2933 178° South 362 671 18,000 1,288 Climbing Cleveland Center
Wed 06:45:06 39.7411 -80.2872 179° South 366 678 21,100 1,729 Climbing Washington Center
Wed 06:46:06 39.6286 -80.2825 178° South 386 715 23,100 1,750 Climbing Washington Center
Wed 06:47:06 39.5122 -80.2778 178° South 402 745 24,600 1,600 Climbing Washington Center
Wed 06:48:06 39.3936 -80.2728 178° South 423 784 26,300 1,550 Climbing Washington Center
Wed 06:49:06 39.2706 -80.2700 179° South 434 803 27,700 1,500 Climbing Washington Center
Wed 06:50:06 39.1508 -80.2972 190° South 440 814 29,300 1,850 Climbing Washington Center
Wed 06:51:06 39.0347 -80.3297 192° South 440 814 31,400 1,600 Climbing Washington Center
Wed 06:52:06 38.9186 -80.3650 193° South 435 806 32,500 800 Climbing Washington Center
Wed 06:53:06 38.8025 -80.4000 193° South 435 806 33,000 800 Climbing Washington Center
Wed 06:54:06 38.6714 -80.4475 196° South 444 822 34,100 1,150 Climbing Washington Center
Wed 06:55:06 38.5661 -80.4750 192° South 439 813 35,300 950 Climbing Washington Center
Wed 06:56:06 38.4519 -80.5100 194° South 434 803 36,000 350 Climbing Washington Center
Wed 06:57:06 38.3339 -80.5419 192° South 434 803 36,000  Level Washington Center
Wed 06:58:06 38.2017 -80.5594 186° South 434 803 36,000  Level Washington Center
Wed 06:59:06 38.0844 -80.5753 186° South 434 803 36,000  Level Washington Center
Wed 07:00:06 37.9647 -80.5939 187° South 434 803 36,000  Level Washington Center
Wed 07:01:06 37.8450 -80.6122 187° South 434 803 36,000  Level Washington Center
Wed 07:03:03 37.6147 -80.6414 186° South 423 784 36,000  Level Atlanta Center
Wed 07:04:03 37.5108 -80.6589 188° South 423 784 36,000  Level Atlanta Center
Wed 07:05:03 37.3925 -80.6747 186° South 423 784 36,000  Level Atlanta Center
Wed 07:06:03 37.2761 -80.6900 186° South 423 784 36,000  Level Atlanta Center
Wed 07:07:03 37.1475 -80.7058 186° South 423 784 36,000  Level Atlanta Center
Wed 07:08:03 37.0292 -80.7239 187° South 423 784 36,000  Level Atlanta Center
Wed 07:09:03 36.9125 -80.7339 184° South 423 784 36,000  Level Atlanta Center
Wed 07:10:03 36.7981 -80.7439 184° South 423 784 36,000  Level Atlanta Center
Wed 07:11:03 36.6839 -80.7564 185° South 417 772 36,000  Level Atlanta Center
Wed 07:12:03 36.5675 -80.7689 185° South 424 785 36,000  Level Atlanta Center
Wed 07:13:03 36.4508 -80.7814 185° South 424 785 36,000  Level Atlanta Center
Wed 07:14:03 36.3325 -80.7939 185° South 424 785 36,000  Level Atlanta Center
Wed 07:15:03 36.2139 -80.8092 186° South 424 785 36,000  Level Atlanta Center
Wed 07:16:03 36.0975 -80.8189 184° South 425 787 36,000  Level Atlanta Center
Wed 07:17:03 35.9808 -80.8311 185° South 425 787 36,000  Level Atlanta Center
Wed 07:18:03 35.8747 -80.8431 185° South 425 787 36,000  Level Atlanta Center
Wed 07:19:03 35.7561 -80.8553 185° South 425 787 36,000  Level Atlanta Center
Wed 07:20:03 35.6378 -80.8678 185° South 425 787 36,000  Level Atlanta Center
Wed 07:21:03 35.5192 -80.8825 186° South 425 787 36,000  Level Atlanta Center
Wed 07:22:03 35.3881 -80.8950 184° South 425 787 36,000  Level Atlanta Center
Wed 07:23:03 35.2694 -80.9125 187° South 425 787 36,000  Level Atlanta Center
Wed 07:24:03 35.1508 -80.9219 184° South 425 787 36,000  Level Atlanta Center
Wed 07:25:39 34.9728 -80.9419 185° South 431 798 36,000  Level Jacksonville Center
Wed 07:26:39 34.8522 -80.9547 185° South 431 798 36,000  Level Jacksonville Center
Wed 07:27:39 34.7356 -80.9675 185° South 431 798 36,000  Level Jacksonville Center
Wed 07:28:39 34.6186 -80.9675 180° South 424 785 36,000  Level Jacksonville Center
Wed 07:29:39 34.4939 -80.9906 189° South 431 798 36,000  Level Jacksonville Center
Wed 07:30:39 34.3628 -81.0061 186° South 431 798 36,000  Level Jacksonville Center
Wed 07:31:39 34.2503 -81.0161 184° South 432 800 36,000  Level Jacksonville Center
Wed 07:32:39 34.1314 -81.0311 186° South 427 790 36,000  Level Jacksonville Center
Wed 07:33:39 34.0231 -81.0358 182° South 422 782 36,000  Level Jacksonville Center
Wed 07:34:39 33.9064 -81.0483 185° South 422 782 36,000  Level Jacksonville Center
Wed 07:35:39 33.7856 -81.0608 185° South 422 782 36,000  Level Jacksonville Center
Wed 07:36:39 33.6564 -81.0736 185° South 422 782 36,000  Level Jacksonville Center
Wed 07:37:39 33.5356 -81.0836 184° South 422 782 36,000  Level Jacksonville Center
Wed 07:38:39 33.4189 -81.0958 185° South 422 782 36,000  Level Jacksonville Center
Wed 07:39:39 33.3103 -81.1031 183° South 428 793 36,000  Level Jacksonville Center
Wed 07:40:39 33.1875 -81.1156 185° South 428 793 36,000  Level Jacksonville Center
Wed 07:41:39 33.0728 -81.1250 184° South 428 793 36,000  Level Jacksonville Center
Wed 07:42:39 32.9517 -81.1350 184° South 428 793 36,000  Level Jacksonville Center
Wed 07:43:39 32.8308 -81.1422 183° South 433 801 36,000  Level Jacksonville Center
Wed 07:44:39 32.7142 -81.1519 184° South 433 801 36,000  Level Jacksonville Center
Wed 07:45:39 32.5847 -81.1642 185° South 433 801 36,000  Level Jacksonville Center
Wed 07:46:39 32.4764 -81.1761 185° South 433 801 36,000  Level Jacksonville Center
Wed 07:47:39 32.3514 -81.1833 183° South 440 814 36,000  Level Jacksonville Center
Wed 07:48:39 32.2344 -81.1931 184° South 440 814 36,000  Level Jacksonville Center
Wed 07:49:39 32.1178 -81.2025 184° South 440 814 36,000  Level Jacksonville Center
Wed 07:50:39 31.9986 -81.1972 178° South 435 806 36,000  Level Jacksonville Center
Wed 07:51:39 31.8692 -81.1925 178° South 435 806 36,000  Level Jacksonville Center
Wed 07:52:39 31.7606 -81.1894 179° South 430 797 36,000  Level Jacksonville Center
Wed 07:53:39 31.6311 -81.1844 178° South 430 797 36,000  Level Jacksonville Center
Wed 07:54:39 31.5119 -81.1794 178° South 430 797 36,000  Level Jacksonville Center
Wed 07:55:39 31.4033 -81.1767 179° South 430 797 36,000  Level Jacksonville Center
Wed 07:56:39 31.2739 -81.1742 179° South 435 806 36,000  Level Jacksonville Center
Wed 07:57:39 31.1528 -81.1714 179° South 435 806 36,000 -450 Level Jacksonville Center
Wed 07:58:39 31.0336 -81.1639 177° South 435 806 35,100 -950 Descending Jacksonville Center
Wed 07:59:39 30.9144 -81.1636 180° South 440 814 34,100 -550 Descending Jacksonville Center
Wed 08:00:39 30.7933 -81.1561 177° South 440 814 34,000 -100 Descending Jacksonville Center
Wed 08:01:39 30.6722 -81.1536 179° South 440 814 33,900 -600 Descending Jacksonville Center
Wed 08:02:39 30.5489 -81.1511 179° South 440 814 32,800 -1,000 Descending Jacksonville Center
Wed 08:03:39 30.4217 -81.1486 179° South 440 814 31,900 -400 Descending Jacksonville Center
Wed 08:04:39 30.3006 -81.1433 178° South 440 814 32,000 50 Climbing Jacksonville Center
Wed 08:05:39 30.1731 -81.1411 179° South 445 824 32,000 -50 Level Jacksonville Center
Wed 08:06:39 30.0478 -81.1386 179° South 445 824 31,900 -1,200 Descending Jacksonville Center
Wed 08:07:39 29.9244 -81.1336 178° South 445 824 29,600 -2,300 Descending Jacksonville Center
Wed 08:08:39 29.8033 -81.1308 179° South 445 824 27,300 -2,350 Descending Jacksonville Center
Wed 08:09:39 29.6864 -81.1283 179° South 439 813 24,900 -2,250 Descending Jacksonville Center
Wed 08:10:39 29.5736 -81.1231 178° South 428 793 22,800 -2,100 Descending Jacksonville Center
Wed 08:11:39 29.4714 -81.1178 177° South 400 740 20,700 -2,050 Descending Jacksonville Center
Wed 08:12:39 29.3689 -81.1150 179° South 381 705 18,700 -1,950 Descending Jacksonville Center
Wed 08:13:39 29.2667 -81.1119 179° South 369 684 16,800 -2,000 Descending Jacksonville Center
Wed 08:14:39 29.1664 -81.1019 175° South 363 673 14,700 -2,100 Descending Jacksonville Center
Wed 08:15:39 29.0639 -81.0967 177° South 363 673 12,600 -1,350 Descending Jacksonville Center
Wed 08:16:39 28.9719 -81.0842 173° South 358 663 12,000 -1,053 Descending Jacksonville Center
Wed 08:17:50 28.8667 -81.0667 172° South 294 544 10,300 -1,557 Descending Orlando TRACON
Wed 08:18:50 28.8000 -81.0667 180° South 287 531 8,600 -1,686 Descending Orlando TRACON
Wed 08:19:51 28.7333 -81.1167 213° Southwest 285 528 6,900 -1,785 Descending Orlando TRACON
Wed 08:20:51 28.6833 -81.1833 229° Southwest 280 518 5,000 -1,850 Descending Orlando TRACON
Wed 08:21:51 28.6333 -81.2500 229° Southwest 261 483 3,200 -1,000 Descending Orlando TRACON
Wed 08:22:51 28.5833 -81.3000 221° Southwest 199 369 3,000 -476 Descending Orlando TRACON
Wed 08:23:57 28.5333 -81.3000 180° South 170 315 2,200 -857 Descending Orlando TRACON
Wed 08:24:57 28.4833 -81.3000 180° South 152 282 1,200 -842 Descending Orlando TRACON
Wed 08:25:51 28.4500 -81.3000 180° South 125 232 600 -667 Descending Orlando TRACON
Wed 08:27:00 28.4294 -81.3090 180° South  Level Estimated
Wed 08:34:00 28.4294 -81.3090 180° South  Level Estimated
Wed 08:35:00 28.4294 -81.3090 180° South  Level Estimated
Wed 08:36:00 28.4294 -81.3090 180° South  Level Estimated
Wed 08:37:00 28.4294 -81.3090 180° South  Level Estimated

Login

Don't have an account? Register now (free) for customized features, flight alerts, and more!